RJAI(METAR)
04/24 09:22
RJAI 240022Z 23004G14KT 9999 FEW015 BKN020 BKN100 19/16 Q1019
RMK 1CU015 6SC020 7AC100 A3009=
戻る
トップページへ戻る
IMOC Co,.Ltd.